Time;durP1;ratioP1;P1;durP2;ratioP2;P2;SDS_P1;SDS_P2;PMS_P1;PMS_P2;Temp;Humidity;BMP_temperature;BMP_pressure;BME280_temperature;BME280_humidity;BME280_pressure;Samples;Min_cycle;Max_cycle;Signal;HPM_P1;HPM_P2
2022/12/05 00:01:16;;;;;;;7.25;5.18;;;;;;;5.29;100.00;62547.44;4946642;29;20233;-79
2022/12/05 00:03:43;;;;;;;8.63;5.82;;;;;;;5.04;100.00;62514.13;4930903;29;20475;-78
2022/12/05 00:06:10;;;;;;;10.57;6.22;;;;;;;4.83;100.00;62490.50;4948780;29;20221;-79
2022/12/05 00:08:37;;;;;;;6.75;5.68;;;;;;;4.85;100.00;62499.63;4950292;29;20244;-78
2022/12/05 00:11:03;;;;;;;7.78;5.85;;;;;;;4.93;100.00;62505.84;4949063;29;20221;-80
2022/12/05 00:13:30;;;;;;;8.10;5.95;;;;;;;4.92;100.00;62502.28;4951420;29;20244;-79
2022/12/05 00:15:57;;;;;;;7.25;5.75;;;;;;;5.02;100.00;62507.03;4950029;29;20229;-79
2022/12/05 00:18:25;;;;;;;9.05;7.00;;;;;;;5.10;100.00;62525.34;4951056;29;20220;-79
2022/12/05 00:20:52;;;;;;;7.90;6.30;;;;;;;5.18;100.00;62533.56;4949745;29;20221;-79
2022/12/05 00:23:19;;;;;;;10.35;6.70;;;;;;;5.25;100.00;62538.78;4948791;29;20236;-78
2022/12/05 00:25:46;;;;;;;9.60;7.03;;;;;;;5.16;100.00;62526.50;4930365;29;20226;-78
2022/12/05 00:28:13;;;;;;;8.93;7.18;;;;;;;5.18;100.00;62529.06;4948161;29;20284;-78
2022/12/05 00:30:43;;;;;;;10.82;8.32;;;;;;;5.04;100.00;62517.16;4950793;29;20267;-77
2022/12/05 00:33:10;;;;;;;9.27;6.65;;;;;;;5.10;100.00;62522.81;4947464;29;20209;-79
2022/12/05 00:35:39;;;;;;;9.20;7.68;;;;;;;5.06;100.00;62519.22;4948961;29;20217;-78
2022/12/05 00:38:06;;;;;;;8.35;6.10;;;;;;;5.01;100.00;62513.56;4950594;29;20236;-78
2022/12/05 00:40:35;;;;;;;9.05;6.95;;;;;;;4.97;100.00;62512.47;4948262;28;20229;-78
2022/12/05 00:43:02;;;;;;;9.63;7.32;;;;;;;5.13;100.00;62525.91;4949551;28;20197;-78
2022/12/05 00:45:29;;;;;;;12.20;8.57;;;;;;;5.00;100.00;62515.06;4948887;29;20221;-78
2022/12/05 00:47:56;;;;;;;11.25;8.73;;;;;;;4.71;100.00;62481.16;4948365;29;20370;-79
2022/12/05 00:50:23;;;;;;;13.13;8.77;;;;;;;4.78;100.00;62495.44;4949526;29;20213;-79
2022/12/05 00:52:52;;;;;;;14.32;8.43;;;;;;;4.98;100.00;62513.00;4948963;29;20198;-79
2022/12/05 00:55:19;;;;;;;13.98;9.35;;;;;;;5.08;100.00;62520.75;4950514;29;20229;-79
2022/12/05 00:57:46;;;;;;;11.55;8.32;;;;;;;5.08;100.00;62518.75;4950325;29;20201;-80
2022/12/05 01:00:14;;;;;;;14.80;7.97;;;;;;;5.01;100.00;62513.56;4949402;29;20201;-80
2022/12/05 01:02:41;;;;;;;12.38;7.78;;;;;;;4.79;100.00;62491.44;4949677;29;20306;-80
2022/12/05 01:05:08;;;;;;;11.35;7.78;;;;;;;4.80;100.00;62491.94;4948848;29;20545;-79
2022/12/05 01:07:35;;;;;;;9.85;7.18;;;;;;;4.78;100.00;62494.94;4946892;29;20210;-77
2022/12/05 01:10:04;;;;;;;7.47;6.68;;;;;;;4.69;100.00;62481.13;4949862;29;20224;-79
2022/12/05 01:12:31;;;;;;;11.60;7.15;;;;;;;4.68;100.00;62482.63;4948935;29;20209;-79
2022/12/05 01:14:58;;;;;;;8.52;6.57;;;;;;;4.76;100.00;62487.81;4947933;29;20193;-78
2022/12/05 01:17:25;;;;;;;7.43;5.55;;;;;;;4.86;100.00;62493.06;4947513;29;20514;-78
2022/12/05 01:19:52;;;;;;;9.38;6.75;;;;;;;4.72;100.00;62484.22;4948088;28;20225;-78
2022/12/05 01:22:20;;;;;;;8.77;6.97;;;;;;;4.75;100.00;62484.78;4947452;29;20415;-77
2022/12/05 01:24:47;;;;;;;10.07;6.82;;;;;;;4.83;100.00;62495.56;4948915;29;20233;-80
2022/12/05 01:27:16;;;;;;;11.57;7.68;;;;;;;4.73;100.00;62483.22;4947554;29;20225;-78
2022/12/05 01:29:43;;;;;;;7.75;6.32;;;;;;;4.60;100.00;62469.88;4947506;29;20232;-79
2022/12/05 01:32:10;;;;;;;10.55;7.25;;;;;;;4.66;100.00;62476.03;4948943;29;20225;-80
2022/12/05 01:34:37;;;;;;;9.65;7.03;;;;;;;4.68;100.00;62480.63;4947011;29;20216;-79
2022/12/05 01:37:04;;;;;;;10.63;7.60;;;;;;;4.74;100.00;62488.81;4963107;28;20548;-79
2022/12/05 01:39:31;;;;;;;15.00;8.25;;;;;;;4.61;100.00;62467.84;4946868;29;20201;-78
2022/12/05 01:41:58;;;;;;;10.27;7.38;;;;;;;4.56;100.00;62468.25;4948354;29;20225;-80
2022/12/05 01:45:07;;;;;;;13.48;8.70;;;;;;;4.54;100.00;62471.25;4951040;29;20258;-79
2022/12/05 01:47:37;;;;;;;12.80;9.43;;;;;;;4.61;100.00;62470.88;4947785;29;20185;-79
2022/12/05 01:50:05;;;;;;;19.95;9.88;;;;;;;4.52;100.00;62461.63;4948136;28;20197;-78
2022/12/05 01:52:33;;;;;;;18.10;9.73;;;;;;;4.43;100.00;62457.41;4947156;29;20197;-78
2022/12/05 01:55:06;;;;;;;15.35;8.90;;;;;;;4.47;100.00;62455.94;4929749;29;20202;-79
2022/12/05 01:57:34;;;;;;;18.38;9.38;;;;;;;4.42;100.00;62453.84;4936779;29;20202;-81
2022/12/05 02:00:08;;;;;;;15.50;10.68;;;;;;;4.37;100.00;62448.69;4948470;28;20264;-80
2022/12/05 02:02:35;;;;;;;10.25;8.80;;;;;;;4.27;100.00;62438.41;4947483;29;20201;-80
2022/12/05 02:05:07;;;;;;;12.60;10.23;;;;;;;4.24;100.00;62432.81;4950029;28;20468;-78
2022/12/05 02:07:36;;;;;;;12.80;8.80;;;;;;;4.24;100.00;62437.34;4950627;29;20202;-79
2022/12/05 02:10:04;;;;;;;13.43;8.75;;;;;;;4.21;100.00;62432.22;4952813;29;20209;-79
2022/12/05 02:12:31;;;;;;;8.55;6.72;;;;;;;4.17;100.00;62425.63;4949589;29;20264;-77
2022/12/05 02:15:21;;;;;;;12.23;8.35;;;;;;;4.03;100.00;62411.22;4952999;29;20241;-78
2022/12/05 02:17:55;;;;;;;12.25;8.55;;;;;;;4.04;100.00;62414.25;4949693;29;20209;-78
2022/12/05 02:20:34;;;;;;;9.25;7.05;;;;;;;3.98;100.00;62408.59;4949714;29;20331;-77
2022/12/05 02:23:42;;;;;;;11.07;7.43;;;;;;;3.90;100.00;62397.31;4951105;29;20186;-79
2022/12/05 02:26:36;;;;;;;11.07;8.13;;;;;;;3.90;100.00;62397.31;4932226;29;20232;-78
2022/12/05 02:29:50;;;;;;;5.32;4.78;;;;;;;3.98;100.00;62408.06;4937781;29;20241;-77
2022/12/05 02:32:33;;;;;;;4.85;4.20;;;;;;;3.97;100.00;62409.56;4933534;28;20233;-79
2022/12/05 02:35:12;;;;;;;7.10;5.85;;;;;;;4.06;100.00;62416.28;4949262;29;20252;-79
2022/12/05 02:37:46;;;;;;;7.15;5.60;;;;;;;4.02;100.00;62412.19;4951951;28;20268;-80
2022/12/05 02:40:22;;;;;;;5.88;5.35;;;;;;;4.18;100.00;62433.66;4953107;29;20201;-81
2022/12/05 02:42:56;;;;;;;5.85;5.30;;;;;;;4.11;100.00;62421.94;4950175;28;20248;-79
2022/12/05 02:45:27;;;;;;;6.78;5.32;;;;;;;4.19;100.00;62427.66;4952119;28;20241;-79
2022/12/05 02:47:57;;;;;;;6.50;5.20;;;;;;;4.22;100.00;62430.22;4952025;29;20272;-79
2022/12/05 02:50:28;;;;;;;7.28;5.20;;;;;;;4.26;100.00;62439.41;4949577;29;20232;-78
2022/12/05 02:52:59;;;;;;;5.78;5.00;;;;;;;4.13;100.00;62418.44;4950932;29;20531;-79
2022/12/05 02:55:29;;;;;;;5.70;4.70;;;;;;;4.02;100.00;62410.16;4952888;29;20276;-79
2022/12/05 02:58:01;;;;;;;5.63;4.85;;;;;;;4.03;100.00;62415.72;4952653;29;20202;-78
2022/12/05 03:00:28;;;;;;;5.28;4.38;;;;;;;3.98;100.00;62408.06;4949010;29;20452;-82
2022/12/05 03:02:58;;;;;;;5.18;4.50;;;;;;;3.95;100.00;62410.03;4950310;28;20198;-80
2022/12/05 03:05:38;;;;;;;3.65;3.35;;;;;;;3.91;100.00;62398.88;4953310;29;20237;-81
2022/12/05 03:08:08;;;;;;;5.00;4.20;;;;;;;3.96;100.00;62406.00;4950522;29;20253;-80
2022/12/05 03:10:38;;;;;;;4.18;3.72;;;;;;;4.03;100.00;62413.22;4949603;29;20232;-80
2022/12/05 03:13:13;;;;;;;4.95;4.07;;;;;;;4.04;100.00;62419.28;4951096;29;20223;-79
2022/12/05 03:15:44;;;;;;;5.10;4.60;;;;;;;4.09;100.00;62417.38;4948278;29;20272;-79
2022/12/05 03:18:21;;;;;;;4.95;4.47;;;;;;;4.14;100.00;62422.00;4949325;29;20197;-77
2022/12/05 03:20:51;;;;;;;3.60;3.38;;;;;;;4.04;100.00;62412.22;4950562;29;20583;-79
2022/12/05 03:23:23;;;;;;;4.07;3.78;;;;;;;3.95;100.00;62410.03;4950977;28;20212;-79
2022/12/05 03:26:01;;;;;;;4.57;4.20;;;;;;;3.97;100.00;62407.53;4949269;29;20572;-81
2022/12/05 03:28:37;;;;;;;3.15;2.95;;;;;;;3.99;100.00;62411.59;4947967;29;20209;-78
2022/12/05 03:31:14;;;;;;;4.00;3.70;;;;;;;3.94;100.00;62403.94;4948187;29;20225;-78
2022/12/05 03:33:48;;;;;;;3.95;3.63;;;;;;;3.92;100.00;62404.41;4947800;29;20200;-79
2022/12/05 03:36:20;;;;;;;3.47;3.17;;;;;;;3.94;100.00;62404.47;4949161;29;20229;-79
2022/12/05 03:38:52;;;;;;;3.72;3.45;;;;;;;4.15;100.00;62430.59;4951078;29;20209;-79
2022/12/05 03:41:24;;;;;;;4.35;3.95;;;;;;;4.10;100.00;62420.94;4952141;29;20267;-79
2022/12/05 03:43:56;;;;;;;4.88;4.10;;;;;;;4.05;100.00;62412.75;4968218;28;20528;-77
2022/12/05 03:46:27;;;;;;;4.85;4.47;;;;;;;4.09;100.00;62421.91;4943690;28;20303;-80
2022/12/05 03:49:01;;;;;;;4.78;4.38;;;;;;;4.02;100.00;62412.69;4930667;29;20202;-78
2022/12/05 03:51:33;;;;;;;3.90;3.60;;;;;;;3.75;100.00;62384.41;4948557;29;20552;-77
2022/12/05 03:54:05;;;;;;;4.97;4.47;;;;;;;3.96;100.00;62411.03;4949510;29;20209;-78
2022/12/05 03:56:37;;;;;;;5.57;5.03;;;;;;;4.03;100.00;62410.69;4949450;29;20538;-81
2022/12/05 03:59:12;;;;;;;9.20;7.13;;;;;;;4.20;100.00;62433.72;4950365;29;20233;-80
2022/12/05 04:01:43;;;;;;;10.70;7.32;;;;;;;4.30;100.00;62440.97;4968550;28;20288;-80
2022/12/05 04:04:17;;;;;;;11.27;8.75;;;;;;;4.33;100.00;62447.09;4957524;28;20208;-80
2022/12/05 04:06:47;;;;;;;9.07;7.03;;;;;;;4.46;100.00;62460.50;4951449;29;20284;-79
2022/12/05 04:09:19;;;;;;;7.72;6.63;;;;;;;4.59;100.00;62468.31;4939455;29;20288;-78
2022/12/05 04:11:51;;;;;;;8.52;6.43;;;;;;;4.65;100.00;62480.06;4929734;29;20229;-80
2022/12/05 04:14:22;;;;;;;10.32;7.75;;;;;;;4.77;100.00;62484.31;4948517;29;20216;-81
2022/12/05 04:17:05;;;;;;;13.10;7.38;;;;;;;4.85;100.00;62495.06;4949344;29;20581;-80
2022/12/05 04:22:25;;;;;;;9.18;7.28;;;;;;;4.85;100.00;62495.06;4942777;29;20220;-79
2022/12/05 04:27:42;;;;;;;12.55;7.25;;;;;;;5.02;100.00;62514.59;4933829;29;20204;-78
2022/12/05 04:30:14;;;;;;;7.80;6.95;;;;;;;5.03;100.00;62513.59;4929169;29;20202;-79
2022/12/05 04:32:46;;;;;;;7.78;6.40;;;;;;;5.11;100.00;62526.88;4942452;29;20208;-79
2022/12/05 04:35:21;;;;;;;9.98;6.57;;;;;;;5.18;100.00;62531.56;4949360;29;20209;-80
2022/12/05 04:37:52;;;;;;;11.32;7.82;;;;;;;5.13;100.00;62523.38;4945678;28;20201;-81
2022/12/05 04:40:28;;;;;;;8.98;7.30;;;;;;;5.24;100.00;62539.75;4941133;29;20268;-80
2022/12/05 04:42:58;;;;;;;8.75;7.00;;;;;;;5.19;100.00;62532.09;4948445;29;20246;-82
2022/12/05 04:45:27;;;;;;;11.70;7.03;;;;;;;4.91;100.00;62506.31;4956594;29;20427;-81
2022/12/05 04:47:59;;;;;;;9.82;7.13;;;;;;;5.07;100.00;62525.31;4951806;28;20498;-80
2022/12/05 04:50:31;;;;;;;9.48;6.70;;;;;;;5.00;100.00;62513.06;4949024;29;20237;-80
2022/12/05 04:53:00;;;;;;;7.40;6.60;;;;;;;5.15;100.00;62525.44;4950511;29;20189;-80
2022/12/05 04:55:28;;;;;;;8.10;6.80;;;;;;;5.21;100.00;62534.66;4950549;29;20229;-80
2022/12/05 04:58:04;;;;;;;8.82;6.80;;;;;;;5.11;100.00;62526.88;4946397;29;20209;-79
2022/12/05 05:00:35;;;;;;;10.00;7.38;;;;;;;5.16;100.00;62529.00;4946792;29;20228;-79
2022/12/05 05:03:08;;;;;;;8.93;6.95;;;;;;;5.27;100.00;62543.38;4946667;28;20205;-78
2022/12/05 05:05:38;;;;;;;9.20;7.28;;;;;;;5.13;100.00;62523.91;4943662;29;20256;-76
2022/12/05 05:08:05;;;;;;;8.52;6.88;;;;;;;5.21;100.00;62537.19;4933628;29;20205;-77
2022/12/05 05:10:36;;;;;;;7.43;6.28;;;;;;;5.23;100.00;62533.69;4945750;29;20304;-76
2022/12/05 05:13:03;;;;;;;6.93;6.10;;;;;;;5.21;100.00;62537.19;4942217;29;20201;-79
2022/12/05 05:15:31;;;;;;;7.57;6.78;;;;;;;5.29;100.00;62542.91;4938575;29;20244;-78
2022/12/05 05:17:58;;;;;;;7.10;6.32;;;;;;;5.26;100.00;62539.81;4949239;29;20209;-80
2022/12/05 05:20:26;;;;;;;8.55;6.80;;;;;;;5.30;100.00;62546.47;4957923;29;20405;-80
2022/12/05 05:22:55;;;;;;;7.35;6.40;;;;;;;5.42;100.00;62551.25;4955219;28;20212;-79
2022/12/05 05:25:24;;;;;;;7.53;6.47;;;;;;;5.50;100.00;62569.06;4945712;29;20252;-79
2022/12/05 05:27:52;;;;;;;7.22;5.75;;;;;;;5.52;100.00;62561.53;4946161;29;20208;-80
2022/12/05 05:30:20;;;;;;;9.02;7.20;;;;;;;5.53;100.00;62567.63;4928104;29;20237;-79
2022/12/05 05:32:47;;;;;;;6.38;5.70;;;;;;;5.54;100.00;62568.66;4941076;29;20206;-77
2022/12/05 05:35:14;;;;;;;8.77;5.78;;;;;;;5.47;100.00;62561.44;4939606;29;20212;-79
2022/12/05 05:37:42;;;;;;;4.85;4.40;;;;;;;5.57;100.00;62568.72;4946849;29;20453;-80
2022/12/05 05:40:13;;;;;;;6.47;5.80;;;;;;;5.59;100.00;62568.25;4950896;29;20373;-82
2022/12/05 05:42:43;;;;;;;5.72;5.03;;;;;;;5.58;100.00;62572.78;4951988;28;20211;-79
2022/12/05 05:45:11;;;;;;;5.85;5.35;;;;;;;5.51;100.00;62565.56;4949750;29;20284;-78
2022/12/05 05:47:38;;;;;;;5.65;5.05;;;;;;;5.56;100.00;62568.19;4952282;29;20205;-80
2022/12/05 05:50:06;;;;;;;8.90;6.50;;;;;;;5.56;100.00;62570.19;4953193;29;20201;-78
2022/12/05 05:52:34;;;;;;;9.98;7.47;;;;;;;5.58;100.00;62572.78;4954906;29;20197;-79
2022/12/05 05:55:03;;;;;;;13.43;8.05;;;;;;;5.47;100.00;62558.91;4952271;29;20268;-80
2022/12/05 05:57:36;;;;;;;15.82;9.38;;;;;;;5.30;100.00;62548.97;4951630;29;20224;-79
2022/12/05 06:00:06;;;;;;;15.43;9.52;;;;;;;4.87;100.00;62502.19;4950025;29;20356;-78
2022/12/05 06:02:35;;;;;;;21.30;10.45;;;;;;;4.68;100.00;62475.56;4947749;29;20201;-79
2022/12/05 06:05:03;;;;;;;15.80;10.57;;;;;;;4.83;100.00;62492.50;4951664;29;20233;-80
2022/12/05 06:07:30;;;;;;;18.48;10.73;;;;;;;4.97;100.00;62509.44;4952347;28;20201;-78
2022/12/05 06:09:57;;;;;;;15.65;9.95;;;;;;;5.12;100.00;62522.88;4949502;29;20208;-78
2022/12/05 06:12:24;;;;;;;13.15;9.18;;;;;;;5.21;100.00;62536.69;4946954;29;20213;-80
2022/12/05 06:14:53;;;;;;;15.57;9.57;;;;;;;5.17;100.00;62530.56;4947777;29;20563;-80
2022/12/05 06:17:20;;;;;;;18.95;11.45;;;;;;;5.24;100.00;62537.25;4950743;28;20223;-80
2022/12/05 06:19:47;;;;;;;15.70;9.07;;;;;;;5.36;100.00;62549.59;4947509;29;20474;-79
2022/12/05 06:22:14;;;;;;;13.98;8.48;;;;;;;5.44;100.00;62555.84;4948713;29;20680;-79
2022/12/05 06:24:43;;;;;;;11.75;8.23;;;;;;;5.42;100.00;62558.81;4950856;29;20205;-79
2022/12/05 06:27:10;;;;;;;12.98;8.82;;;;;;;5.42;100.00;62556.28;4951590;29;20257;-79
2022/12/05 06:29:37;;;;;;;13.77;8.90;;;;;;;5.55;100.00;62569.69;4949154;28;20213;-78
2022/12/05 06:32:06;;;;;;;13.13;8.40;;;;;;;5.57;100.00;62569.22;4950704;29;20229;-80
2022/12/05 06:34:34;;;;;;;10.50;8.45;;;;;;;5.41;100.00;62552.22;4950735;28;20549;-78
2022/12/05 06:37:01;;;;;;;13.02;8.93;;;;;;;5.51;100.00;62570.63;4950424;29;20244;-79
2022/12/05 06:39:29;;;;;;;14.70;8.80;;;;;;;5.59;100.00;62570.78;4945505;28;20205;-80
2022/12/05 06:41:56;;;;;;;12.75;8.50;;;;;;;5.72;100.00;62589.75;4950183;28;20217;-78
2022/12/05 06:44:25;;;;;;;13.95;7.93;;;;;;;5.64;100.00;62578.44;4952118;29;20202;-80
2022/12/05 06:46:53;;;;;;;10.63;7.95;;;;;;;5.78;100.00;62595.91;4948898;29;20239;-79
2022/12/05 06:49:25;;;;;;;12.40;8.50;;;;;;;5.92;100.00;62609.84;4951330;29;20229;-79
2022/12/05 06:51:51;;;;;;;11.45;8.13;;;;;;;5.72;100.00;62589.22;4951597;29;20233;-78
2022/12/05 06:54:18;;;;;;;11.32;7.85;;;;;;;5.76;100.00;62585.75;4949847;29;20377;-78
2022/12/05 06:56:45;;;;;;;12.40;8.35;;;;;;;5.82;100.00;62594.47;4947414;29;20229;-79
2022/12/05 06:59:12;;;;;;;12.32;9.13;;;;;;;5.95;100.00;62607.38;4966514;29;20208;-78
2022/12/05 07:01:39;;;;;;;11.70;8.68;;;;;;;5.82;100.00;62595.00;4955430;28;20291;-78
2022/12/05 07:04:10;;;;;;;11.43;8.40;;;;;;;6.06;100.00;62618.72;4950171;29;20510;-80
2022/12/05 07:06:39;;;;;;;16.95;13.45;;;;;;;6.15;100.00;62628.50;4950781;29;20256;-79
2022/12/05 07:09:07;;;;;;;14.35;8.68;;;;;;;6.21;100.00;62632.16;4949622;28;20241;-79
2022/12/05 07:11:35;;;;;;;9.43;7.75;;;;;;;6.35;100.00;62651.63;4951300;28;20301;-78
2022/12/05 07:14:04;;;;;;;9.10;7.03;;;;;;;6.58;100.00;62672.31;4952003;29;20193;-77
2022/12/05 07:16:31;;;;;;;5.60;4.85;;;;;;;6.64;100.00;62681.53;4933765;29;20229;-79
2022/12/05 07:18:58;;;;;;;4.18;3.80;;;;;;;6.72;100.00;62691.81;4935772;29;20205;-78
2022/12/05 07:21:25;;;;;;;4.20;3.80;;;;;;;6.60;100.00;62679.44;4952960;29;20227;-79
2022/12/05 07:23:54;;;;;;;3.88;3.55;;;;;;;6.77;100.00;62700.03;4969281;28;20200;-77
2022/12/05 07:26:23;;;;;;;7.93;4.28;;;;;;;6.89;100.00;62711.88;4969335;28;20301;-78
2022/12/05 07:28:51;;;;;;;3.88;3.47;;;;;;;7.00;100.00;62718.69;4956831;28;20225;-77
2022/12/05 07:31:21;;;;;;;4.63;4.30;;;;;;;7.22;100.00;62745.94;4954519;29;20272;-76
2022/12/05 07:33:48;;;;;;;5.40;4.82;;;;;;;7.29;100.00;62745.03;4933893;29;20212;-80
2022/12/05 07:36:20;;;;;;;4.57;4.22;;;;;;;7.34;100.00;62750.19;4932762;29;20565;-77
2022/12/05 07:38:48;;;;;;;3.75;3.42;;;;;;;7.17;100.00;62732.66;4946089;29;20450;-78
2022/12/05 07:41:20;;;;;;;4.95;4.45;;;;;;;7.07;100.00;62725.91;4950536;29;20292;-78
2022/12/05 07:43:47;;;;;;;5.13;4.65;;;;;;;6.90;100.00;62705.31;4949683;29;20364;-77
2022/12/05 07:46:15;;;;;;;5.78;4.57;;;;;;;6.68;100.00;62685.16;4947912;28;20248;-78
2022/12/05 07:48:41;;;;;;;5.95;4.85;;;;;;;6.85;100.00;62702.69;4949394;29;20201;-78
2022/12/05 07:51:11;;;;;;;7.22;5.68;;;;;;;6.88;100.00;62708.31;4955562;28;20245;-79
2022/12/05 07:53:40;;;;;;;7.85;4.78;;;;;;;6.72;100.00;62692.34;4953404;28;20463;-77
2022/12/05 07:56:13;;;;;;;5.78;4.68;;;;;;;6.92;100.00;62710.44;4951523;29;20268;-78
2022/12/05 07:58:42;;;;;;;6.43;5.05;;;;;;;6.78;100.00;62698.50;4951936;29;20217;-78
2022/12/05 08:01:11;;;;;;;6.63;4.82;;;;;;;6.99;100.00;62717.13;4950164;29;20389;-77
2022/12/05 08:03:38;;;;;;;7.10;6.10;;;;;;;6.86;100.00;62703.72;4949004;29;20240;-76
2022/12/05 08:06:08;;;;;;;7.35;4.97;;;;;;;6.62;100.00;62679.50;4949024;29;20506;-78
2022/12/05 08:08:35;;;;;;;5.25;4.75;;;;;;;6.86;100.00;62704.25;4949956;29;20447;-78
2022/12/05 08:11:06;;;;;;;6.15;5.05;;;;;;;6.80;100.00;62698.03;4949020;29;20232;-77
2022/12/05 08:13:34;;;;;;;6.50;5.80;;;;;;;7.13;100.00;62736.63;4950790;28;20205;-78
2022/12/05 08:16:05;;;;;;;12.18;8.63;;;;;;;7.34;100.00;62755.78;4937666;29;20222;-77
2022/12/05 08:18:35;;;;;;;13.15;8.43;;;;;;;7.32;100.00;62751.19;4934502;29;20554;-78
2022/12/05 08:54:43;;;;;;;4.80;3.90;;;;;;;6.93;100.00;62711.47;4948584;29;20525;-78
2022/12/05 08:57:10;;;;;;;4.85;4.45;;;;;;;6.88;100.00;62705.78;4947164;29;20225;-78
2022/12/05 08:59:37;;;;;;;4.43;4.03;;;;;;;6.89;100.00;62706.81;4948243;29;20205;-79
2022/12/05 09:02:04;;;;;;;4.75;4.35;;;;;;;7.00;100.00;62723.75;4948223;29;20221;-77
2022/12/05 09:04:31;;;;;;;5.25;4.60;;;;;;;7.15;100.00;62736.16;4948019;29;20225;-77
2022/12/05 09:07:01;;;;;;;5.57;4.97;;;;;;;7.07;100.00;62724.88;4948276;29;20247;-77
2022/12/05 09:09:28;;;;;;;3.70;3.42;;;;;;;7.07;100.00;62725.91;4948694;29;20209;-78
2022/12/05 09:11:57;;;;;;;4.90;4.50;;;;;;;7.12;100.00;62730.56;4948462;28;20269;-78
2022/12/05 09:14:24;;;;;;;4.53;4.20;;;;;;;7.35;100.00;62748.69;4947661;29;20201;-76
2022/12/05 09:16:51;;;;;;;4.13;3.70;;;;;;;7.51;100.00;62763.19;4946645;29;20229;-77
2022/12/05 09:19:23;;;;;;;3.75;3.35;;;;;;;7.63;100.00;62780.63;4947806;28;20457;-77
2022/12/05 09:21:50;;;;;;;4.25;3.65;;;;;;;7.81;100.00;62801.25;4948124;29;20262;-77
2022/12/05 09:24:17;;;;;;;5.28;4.80;;;;;;;7.92;100.00;62810.56;4948446;29;20569;-77
2022/12/05 09:26:46;;;;;;;7.20;4.53;;;;;;;7.89;100.00;62809.50;4946530;29;20596;-78
2022/12/05 09:29:15;;;;;;;5.88;4.13;;;;;;;7.91;100.00;62814.09;4947186;29;20202;-77
2022/12/05 09:31:44;;;;;;;6.55;3.88;;;;;;;8.17;100.00;62838.41;4947672;29;20357;-77
2022/12/05 09:34:13;;;;;;;5.60;5.10;;;;;;;8.32;100.00;62853.41;4947802;28;20205;-77
2022/12/05 09:36:43;;;;;;;7.03;6.32;;;;;;;8.30;100.00;62851.34;4945993;29;20473;-77
2022/12/05 09:39:11;;;;;;;5.03;4.63;;;;;;;8.06;100.00;62827.56;4948741;29;20201;-78
2022/12/05 09:42:04;;;;;;;4.55;4.13;;;;;;;7.98;100.00;62821.84;4948059;29;20264;-79
2022/12/05 09:44:44;;;;;;;4.00;3.70;;;;;;;8.10;100.00;62834.25;4947001;29;20227;-76
2022/12/05 09:47:20;;;;;;;5.60;4.85;;;;;;;8.14;100.00;62837.84;4947374;29;20240;-78
2022/12/05 09:49:51;;;;;;;4.35;3.95;;;;;;;7.94;100.00;62812.13;4948316;28;20201;-77
2022/12/05 09:52:25;;;;;;;4.32;3.67;;;;;;;7.84;100.00;62804.84;4947700;29;20276;-77
2022/12/05 09:54:53;;;;;;;4.15;3.78;;;;;;;7.56;100.00;62778.47;4948115;29;20219;-76
2022/12/05 09:57:31;;;;;;;4.53;4.13;;;;;;;7.63;100.00;62782.66;4947930;29;20346;-77
2022/12/05 10:00:02;;;;;;;4.07;3.72;;;;;;;7.61;100.00;62783.63;4947718;29;20532;-80
2022/12/05 10:02:41;;;;;;;4.47;4.10;;;;;;;7.46;100.00;62763.09;4947580;29;20377;-78
2022/12/05 10:05:17;;;;;;;3.67;3.40;;;;;;;7.34;100.00;62750.72;4947969;29;20376;-77
2022/12/05 10:07:53;;;;;;;4.00;3.63;;;;;;;7.57;100.00;62779.53;4948723;29;20236;-76
2022/12/05 10:10:33;;;;;;;3.80;3.50;;;;;;;7.41;100.00;62760.47;4949298;29;20284;-77
2022/12/05 10:13:29;;;;;;;4.72;3.97;;;;;;;7.55;100.00;62774.91;4961459;29;20521;-78
2022/12/05 10:16:02;;;;;;;4.90;4.22;;;;;;;7.73;100.00;62795.53;4952633;28;20232;-78
2022/12/05 10:18:38;;;;;;;3.83;3.53;;;;;;;7.85;100.00;62802.84;4947513;28;20224;-78
2022/12/05 10:21:17;;;;;;;5.10;4.15;;;;;;;7.72;100.00;62792.47;4949348;29;20240;-77
2022/12/05 10:23:56;;;;;;;4.40;4.10;;;;;;;7.69;100.00;62789.38;4946926;29;20201;-78
2022/12/05 10:26:26;;;;;;;4.47;4.07;;;;;;;7.66;100.00;62783.72;4950489;29;20307;-78
2022/12/05 10:29:01;;;;;;;5.05;4.28;;;;;;;7.48;100.00;62765.16;4952083;29;20205;-79
2022/12/05 10:31:32;;;;;;;4.38;3.70;;;;;;;7.41;100.00;62760.47;4952444;29;20247;-78
2022/12/05 10:34:04;;;;;;;5.72;4.00;;;;;;;7.36;100.00;62757.31;4952174;29;20225;-77
2022/12/05 10:36:32;;;;;;;6.60;4.57;;;;;;;7.48;100.00;62770.22;4950259;29;20225;-78
2022/12/05 10:39:00;;;;;;;5.45;4.70;;;;;;;7.52;100.00;62769.28;4949012;29;20213;-79
2022/12/05 10:41:27;;;;;;;5.38;4.25;;;;;;;7.79;100.00;62799.69;4949794;28;20273;-78
2022/12/05 10:43:59;;;;;;;4.10;3.80;;;;;;;7.74;100.00;62797.06;4949388;29;20265;-76
2022/12/05 10:46:26;;;;;;;9.55;4.30;;;;;;;7.52;100.00;62768.78;4952136;29;20229;-79
2022/12/05 10:48:54;;;;;;;6.80;5.80;;;;;;;7.39;100.00;62760.41;4945660;29;20202;-77
2022/12/05 10:51:27;;;;;;;6.85;5.57;;;;;;;7.51;100.00;62770.78;4948179;29;20233;-78
2022/12/05 10:53:54;;;;;;;5.45;4.93;;;;;;;7.69;100.00;62788.84;4947267;29;20224;-78
2022/12/05 10:56:43;;;;;;;5.75;4.72;;;;;;;7.92;100.00;62815.66;4945467;29;20240;-77
2022/12/05 10:59:13;;;;;;;6.22;4.90;;;;;;;7.79;100.00;62796.63;4949806;29;20208;-79
2022/12/05 11:01:47;;;;;;;6.90;5.57;;;;;;;7.68;100.00;62790.88;4945800;28;20289;-79
2022/12/05 11:04:25;;;;;;;6.60;6.00;;;;;;;7.48;100.00;62765.16;4948564;29;20205;-79
2022/12/05 11:06:56;;;;;;;6.40;5.43;;;;;;;7.72;100.00;62792.47;4948533;29;20530;-77
2022/12/05 11:09:26;;;;;;;5.30;4.72;;;;;;;7.91;100.00;62812.09;4943443;29;20198;-77
2022/12/05 11:12:19;;;;;;;6.32;5.57;;;;;;;7.76;100.00;62796.59;4949410;29;20227;-79
2022/12/05 11:15:01;;;;;;;5.28;4.80;;;;;;;7.64;100.00;62786.75;4937096;29;20233;-80
2022/12/05 11:17:32;;;;;;;5.75;5.15;;;;;;;7.49;100.00;62768.22;4948397;29;20277;-78
2022/12/05 11:20:38;;;;;;;6.70;5.43;;;;;;;7.50;100.00;62769.75;4948848;29;20206;-81
2022/12/05 11:23:32;;;;;;;9.27;5.63;;;;;;;7.51;100.00;62768.25;4951845;29;20220;-78
2022/12/05 11:25:59;;;;;;;5.68;5.00;;;;;;;7.17;100.00;62732.66;4927916;29;20296;-79
2022/12/05 11:28:35;;;;;;;6.53;5.28;;;;;;;7.30;100.00;62749.13;4950225;28;20205;-77
2022/12/05 11:31:05;;;;;;;6.80;5.82;;;;;;;7.36;100.00;62755.31;4945057;29;20272;-79
2022/12/05 11:33:34;;;;;;;6.43;5.70;;;;;;;7.60;100.00;62782.63;4951198;29;20206;-78
2022/12/05 11:36:09;;;;;;;7.07;5.90;;;;;;;7.79;100.00;62799.69;4948585;29;20316;-79
2022/12/05 11:38:38;;;;;;;11.00;5.90;;;;;;;7.85;100.00;62812.97;4951052;29;20201;-81
2022/12/05 11:41:19;;;;;;;7.15;5.90;;;;;;;7.93;100.00;62814.16;4951192;29;20248;-78
2022/12/05 11:44:21;;;;;;;6.53;5.93;;;;;;;7.55;100.00;62774.91;4951416;29;20189;-78
2022/12/05 11:47:00;;;;;;;12.82;9.40;;;;;;;7.50;100.00;62769.25;4928121;29;20434;-79
2022/12/05 11:49:42;;;;;;;8.50;6.38;;;;;;;7.54;100.00;62773.38;4951120;28;20210;-78
2022/12/05 11:52:24;;;;;;;6.82;6.10;;;;;;;7.49;100.00;62768.72;4948888;29;20229;-79
2022/12/05 11:55:01;;;;;;;9.57;7.53;;;;;;;7.50;100.00;62767.22;4959059;29;20209;-80
2022/12/05 11:57:59;;;;;;;9.88;7.82;;;;;;;7.53;100.00;62775.38;4969577;28;20199;-80
2022/12/05 12:00:33;;;;;;;12.90;7.85;;;;;;;7.68;100.00;62788.34;4953897;28;20541;-79
2022/12/05 12:03:27;;;;;;;8.07;6.30;;;;;;;7.74;100.00;62796.56;4963138;28;20213;-77
2022/12/05 12:06:04;;;;;;;5.30;4.80;;;;;;;7.91;100.00;62816.63;4950892;29;20227;-80
2022/12/05 12:08:41;;;;;;;8.68;6.88;;;;;;;8.00;100.00;62823.91;4950483;28;20243;-79
2022/12/05 12:11:16;;;;;;;7.88;6.47;;;;;;;8.02;100.00;62823.44;4951552;28;20228;-80
2022/12/05 12:13:56;;;;;;;7.30;5.22;;;;;;;7.69;100.00;62786.31;4961018;28;20209;-79
2022/12/05 12:16:34;;;;;;;7.68;6.10;;;;;;;7.82;100.00;62802.78;4951932;29;20228;-80
2022/12/05 12:19:16;;;;;;;7.18;6.03;;;;;;;7.88;100.00;62814.06;4948907;29;20553;-79
2022/12/05 12:21:59;;;;;;;9.32;6.53;;;;;;;7.68;100.00;62790.88;4949918;29;20443;-79
2022/12/05 12:24:53;;;;;;;8.43;5.78;;;;;;;7.60;100.00;62784.63;4948707;29;20197;-78
2022/12/05 12:27:32;;;;;;;7.95;5.45;;;;;;;7.71;100.00;62793.47;4948618;29;20280;-78
2022/12/05 12:30:06;;;;;;;7.68;6.45;;;;;;;7.57;100.00;62774.47;4951175;29;20212;-78
2022/12/05 12:32:44;;;;;;;7.35;6.60;;;;;;;7.41;100.00;62762.47;4948388;29;20201;-78